sensor_id;sensor_type;location;lat;lon;timestamp;temperature;humidity
58983;DHT22;44771;49.982;8.560;2023-02-28T00:04:36;-1.70;99.90
58983;DHT22;44771;49.982;8.560;2023-02-28T00:09:39;-1.80;99.90
58983;DHT22;44771;49.982;8.560;2023-02-28T00:14:41;-1.80;99.90
58983;DHT22;44771;49.982;8.560;2023-02-28T00:19:43;-1.60;99.90
58983;DHT22;44771;49.982;8.560;2023-02-28T00:24:46;-1.50;99.90
58983;DHT22;44771;49.982;8.560;2023-02-28T00:29:48;-1.30;99.90
58983;DHT22;44771;49.982;8.560;2023-02-28T00:34:50;-1.30;99.90
58983;DHT22;44771;49.982;8.560;2023-02-28T00:39:53;-1.20;99.90
58983;DHT22;44771;49.982;8.560;2023-02-28T00:44:57;-1.20;99.90
58983;DHT22;44771;49.982;8.560;2023-02-28T00:49:59;-1.30;99.90
58983;DHT22;44771;49.982;8.560;2023-02-28T00:55:03;-1.50;99.90
58983;DHT22;44771;49.982;8.560;2023-02-28T01:00:06;-1.50;99.90
58983;DHT22;44771;49.982;8.560;2023-02-28T01:05:08;-1.60;99.90
58983;DHT22;44771;49.982;8.560;2023-02-28T01:10:12;-1.80;99.90
58983;DHT22;44771;49.982;8.560;2023-02-28T01:15:14;-1.90;99.90
58983;DHT22;44771;49.982;8.560;2023-02-28T01:20:15;-2.00;99.90
58983;DHT22;44771;49.982;8.560;2023-02-28T01:25:19;-2.00;99.90
58983;DHT22;44771;49.982;8.560;2023-02-28T01:30:20;-2.10;99.90
58983;DHT22;44771;49.982;8.560;2023-02-28T01:35:22;-2.20;99.90
58983;DHT22;44771;49.982;8.560;2023-02-28T01:40:25;-2.40;99.90
58983;DHT22;44771;49.982;8.560;2023-02-28T01:45:29;-2.40;99.90
58983;DHT22;44771;49.982;8.560;2023-02-28T01:50:34;-2.50;99.90
58983;DHT22;44771;49.982;8.560;2023-02-28T01:55:39;-2.60;99.90
58983;DHT22;44771;49.982;8.560;2023-02-28T02:00:41;-2.60;99.90
58983;DHT22;44771;49.982;8.560;2023-02-28T02:05:43;-2.70;99.90
58983;DHT22;44771;49.982;8.560;2023-02-28T02:10:49;-2.80;99.90
58983;DHT22;44771;49.982;8.560;2023-02-28T02:15:58;-2.70;99.90
58983;DHT22;44771;49.982;8.560;2023-02-28T02:21:28;-2.70;99.90
58983;DHT22;44771;49.982;8.560;2023-02-28T02:26:58;-2.80;99.90
58983;DHT22;44771;49.982;8.560;2023-02-28T02:32:18;-2.70;99.90
58983;DHT22;44771;49.982;8.560;2023-02-28T02:37:27;-2.70;99.90
58983;DHT22;44771;49.982;8.560;2023-02-28T02:42:36;-2.80;99.90
58983;DHT22;44771;49.982;8.560;2023-02-28T02:47:41;-2.80;99.90
58983;DHT22;44771;49.982;8.560;2023-02-28T02:52:49;-2.80;99.90
58983;DHT22;44771;49.982;8.560;2023-02-28T02:57:56;-2.80;99.90
58983;DHT22;44771;49.982;8.560;2023-02-28T03:03:01;-2.90;99.90
58983;DHT22;44771;49.982;8.560;2023-02-28T03:08:05;-2.90;99.90
58983;DHT22;44771;49.982;8.560;2023-02-28T03:18:47;-2.60;99.90
58983;DHT22;44771;49.982;8.560;2023-02-28T03:24:00;-2.50;99.90
58983;DHT22;44771;49.982;8.560;2023-02-28T03:29:08;-2.50;99.90
58983;DHT22;44771;49.982;8.560;2023-02-28T03:34:17;-2.50;99.90
58983;DHT22;44771;49.982;8.560;2023-02-28T03:39:25;-2.60;99.90
58983;DHT22;44771;49.982;8.560;2023-02-28T03:44:32;-2.50;99.90
58983;DHT22;44771;49.982;8.560;2023-02-28T03:49:38;-2.40;99.90
58983;DHT22;44771;49.982;8.560;2023-02-28T03:54:45;-2.50;99.90
58983;DHT22;44771;49.982;8.560;2023-02-28T03:59:53;-2.70;99.90
58983;DHT22;44771;49.982;8.560;2023-02-28T04:04:57;-2.80;99.90
58983;DHT22;44771;49.982;8.560;2023-02-28T04:10:00;-2.80;99.90
58983;DHT22;44771;49.982;8.560;2023-02-28T04:15:02;-2.90;99.90
58983;DHT22;44771;49.982;8.560;2023-02-28T04:20:04;-2.90;99.90
58983;DHT22;44771;49.982;8.560;2023-02-28T04:25:08;-2.90;99.90
58983;DHT22;44771;49.982;8.560;2023-02-28T04:30:10;-2.90;99.90
58983;DHT22;44771;49.982;8.560;2023-02-28T04:35:12;-2.90;99.90
58983;DHT22;44771;49.982;8.560;2023-02-28T04:40:16;-2.80;99.90
58983;DHT22;44771;49.982;8.560;2023-02-28T04:45:17;-2.70;99.90
58983;DHT22;44771;49.982;8.560;2023-02-28T04:50:19;-2.60;99.90
58983;DHT22;44771;49.982;8.560;2023-02-28T04:55:22;-2.40;99.90
58983;DHT22;44771;49.982;8.560;2023-02-28T05:00:24;-2.30;99.90
58983;DHT22;44771;49.982;8.560;2023-02-28T05:05:26;-2.30;99.90
58983;DHT22;44771;49.982;8.560;2023-02-28T05:10:29;-2.30;99.90
58983;DHT22;44771;49.982;8.560;2023-02-28T05:15:30;-2.40;99.90
58983;DHT22;44771;49.982;8.560;2023-02-28T05:20:34;-2.50;99.90
58983;DHT22;44771;49.982;8.560;2023-02-28T05:25:37;-2.50;99.90
58983;DHT22;44771;49.982;8.560;2023-02-28T05:30:38;-2.60;99.90
58983;DHT22;44771;49.982;8.560;2023-02-28T05:35:41;-2.80;99.90
58983;DHT22;44771;49.982;8.560;2023-02-28T05:40:44;-2.80;99.90
58983;DHT22;44771;49.982;8.560;2023-02-28T05:45:46;-2.90;99.90
58983;DHT22;44771;49.982;8.560;2023-02-28T05:50:47;-3.00;99.90
58983;DHT22;44771;49.982;8.560;2023-02-28T05:55:50;-3.00;99.90
58983;DHT22;44771;49.982;8.560;2023-02-28T06:00:52;-3.00;99.90
58983;DHT22;44771;49.982;8.560;2023-02-28T06:05:53;-3.00;99.90
58983;DHT22;44771;49.982;8.560;2023-02-28T06:10:56;-3.00;99.90
58983;DHT22;44771;49.982;8.560;2023-02-28T06:16:00;-3.00;99.90
58983;DHT22;44771;49.982;8.560;2023-02-28T06:21:02;-3.10;99.90
58983;DHT22;44771;49.982;8.560;2023-02-28T06:26:06;-3.20;99.90
58983;DHT22;44771;49.982;8.560;2023-02-28T06:31:09;-3.20;99.90
58983;DHT22;44771;49.982;8.560;2023-02-28T06:36:12;-3.20;99.90
58983;DHT22;44771;49.982;8.560;2023-02-28T06:41:15;-3.20;99.90
58983;DHT22;44771;49.982;8.560;2023-02-28T06:46:17;-3.10;99.90
58983;DHT22;44771;49.982;8.560;2023-02-28T06:51:20;-2.90;99.90
58983;DHT22;44771;49.982;8.560;2023-02-28T06:56:23;-2.90;99.90
58983;DHT22;44771;49.982;8.560;2023-02-28T07:01:24;-2.80;99.90
58983;DHT22;44771;49.982;8.560;2023-02-28T07:06:27;-2.60;99.90
58983;DHT22;44771;49.982;8.560;2023-02-28T07:11:30;-2.50;99.90
58983;DHT22;44771;49.982;8.560;2023-02-28T07:16:33;-2.40;99.90
58983;DHT22;44771;49.982;8.560;2023-02-28T07:21:34;-2.10;99.90
58983;DHT22;44771;49.982;8.560;2023-02-28T07:26:37;-1.80;99.90
58983;DHT22;44771;49.982;8.560;2023-02-28T07:31:39;-1.60;99.90
58983;DHT22;44771;49.982;8.560;2023-02-28T07:36:41;-1.40;99.90
58983;DHT22;44771;49.982;8.560;2023-02-28T07:41:44;-1.10;99.90
58983;DHT22;44771;49.982;8.560;2023-02-28T07:46:46;-0.90;99.90
58983;DHT22;44771;49.982;8.560;2023-02-28T07:51:47;-0.70;99.90
58983;DHT22;44771;49.982;8.560;2023-02-28T07:56:50;-0.50;99.90
58983;DHT22;44771;49.982;8.560;2023-02-28T08:01:52;-0.30;99.90
58983;DHT22;44771;49.982;8.560;2023-02-28T08:06:54;-0.10;99.90
58983;DHT22;44771;49.982;8.560;2023-02-28T08:11:57;0.00;99.90
58983;DHT22;44771;49.982;8.560;2023-02-28T08:16:59;0.10;99.90
58983;DHT22;44771;49.982;8.560;2023-02-28T08:22:00;0.30;99.90
58983;DHT22;44771;49.982;8.560;2023-02-28T08:27:04;0.30;98.80
58983;DHT22;44771;49.982;8.560;2023-02-28T08:32:06;0.40;98.50
58983;DHT22;44771;49.982;8.560;2023-02-28T08:37:15;0.50;97.30
58983;DHT22;44771;49.982;8.560;2023-02-28T08:42:18;0.70;97.20
58983;DHT22;44771;49.982;8.560;2023-02-28T08:47:20;0.90;96.90
58983;DHT22;44771;49.982;8.560;2023-02-28T08:52:21;0.90;94.60
58983;DHT22;44771;49.982;8.560;2023-02-28T08:57:24;0.90;94.00
58983;DHT22;44771;49.982;8.560;2023-02-28T09:02:26;1.00;92.70
58983;DHT22;44771;49.982;8.560;2023-02-28T09:07:28;1.30;92.40
58983;DHT22;44771;49.982;8.560;2023-02-28T09:12:34;1.20;90.00
58983;DHT22;44771;49.982;8.560;2023-02-28T09:17:36;1.40;90.30
58983;DHT22;44771;49.982;8.560;2023-02-28T09:22:37;1.70;88.60
58983;DHT22;44771;49.982;8.560;2023-02-28T09:27:40;1.90;84.70
58983;DHT22;44771;49.982;8.560;2023-02-28T09:32:43;1.90;84.30
58983;DHT22;44771;49.982;8.560;2023-02-28T09:37:45;2.30;86.10
58983;DHT22;44771;49.982;8.560;2023-02-28T09:42:50;2.40;80.80
58983;DHT22;44771;49.982;8.560;2023-02-28T09:47:55;2.30;80.20
58983;DHT22;44771;49.982;8.560;2023-02-28T09:52:59;2.60;82.00
58983;DHT22;44771;49.982;8.560;2023-02-28T09:58:02;2.20;82.60
58983;DHT22;44771;49.982;8.560;2023-02-28T10:03:14;2.50;80.50
58983;DHT22;44771;49.982;8.560;2023-02-28T10:08:25;2.40;80.80
58983;DHT22;44771;49.982;8.560;2023-02-28T10:13:33;2.70;79.30
58983;DHT22;44771;49.982;8.560;2023-02-28T10:18:42;2.30;79.80
58983;DHT22;44771;49.982;8.560;2023-02-28T10:23:45;2.70;79.20
58983;DHT22;44771;49.982;8.560;2023-02-28T10:28:48;2.50;78.00
58983;DHT22;44771;49.982;8.560;2023-02-28T10:33:50;3.30;73.70
58983;DHT22;44771;49.982;8.560;2023-02-28T10:38:52;3.30;74.20
58983;DHT22;44771;49.982;8.560;2023-02-28T10:44:13;3.10;73.30
58983;DHT22;44771;49.982;8.560;2023-02-28T10:49:17;3.10;73.40
58983;DHT22;44771;49.982;8.560;2023-02-28T10:54:28;2.60;71.60
58983;DHT22;44771;49.982;8.560;2023-02-28T10:59:32;2.70;74.40
58983;DHT22;44771;49.982;8.560;2023-02-28T11:04:35;2.70;71.30
58983;DHT22;44771;49.982;8.560;2023-02-28T11:09:39;2.70;73.90
58983;DHT22;44771;49.982;8.560;2023-02-28T11:14:48;2.90;71.90
58983;DHT22;44771;49.982;8.560;2023-02-28T11:19:56;2.90;71.00
58983;DHT22;44771;49.982;8.560;2023-02-28T11:25:01;3.30;70.90
58983;DHT22;44771;49.982;8.560;2023-02-28T11:30:26;3.60;68.00
58983;DHT22;44771;49.982;8.560;2023-02-28T11:35:32;3.30;69.10
58983;DHT22;44771;49.982;8.560;2023-02-28T11:40:40;3.10;68.00
58983;DHT22;44771;49.982;8.560;2023-02-28T11:46:01;4.10;66.70
58983;DHT22;44771;49.982;8.560;2023-02-28T11:51:13;4.50;67.00
58983;DHT22;44771;49.982;8.560;2023-02-28T11:56:23;4.80;65.00
58983;DHT22;44771;49.982;8.560;2023-02-28T12:01:38;5.00;66.50
58983;DHT22;44771;49.982;8.560;2023-02-28T12:06:44;5.00;64.50
58983;DHT22;44771;49.982;8.560;2023-02-28T12:11:53;4.30;66.10
58983;DHT22;44771;49.982;8.560;2023-02-28T12:17:07;4.60;66.50
58983;DHT22;44771;49.982;8.560;2023-02-28T12:22:27;5.20;63.30
58983;DHT22;44771;49.982;8.560;2023-02-28T12:27:34;5.00;64.10
58983;DHT22;44771;49.982;8.560;2023-02-28T12:32:42;4.90;64.30
58983;DHT22;44771;49.982;8.560;2023-02-28T12:37:50;5.00;62.80
58983;DHT22;44771;49.982;8.560;2023-02-28T12:42:58;5.00;64.10
58983;DHT22;44771;49.982;8.560;2023-02-28T12:48:05;5.30;63.50
58983;DHT22;44771;49.982;8.560;2023-02-28T12:53:13;4.80;62.90
58983;DHT22;44771;49.982;8.560;2023-02-28T12:58:22;4.90;63.40
58983;DHT22;44771;49.982;8.560;2023-02-28T13:03:41;5.00;62.50
58983;DHT22;44771;49.982;8.560;2023-02-28T13:09:01;5.00;62.20
58983;DHT22;44771;49.982;8.560;2023-02-28T13:14:05;5.20;61.60
58983;DHT22;44771;49.982;8.560;2023-02-28T13:19:10;5.20;61.90
58983;DHT22;44771;49.982;8.560;2023-02-28T13:24:40;5.00;62.00
58983;DHT22;44771;49.982;8.560;2023-02-28T13:29:42;5.20;62.20
58983;DHT22;44771;49.982;8.560;2023-02-28T13:40:41;5.10;61.30
58983;DHT22;44771;49.982;8.560;2023-02-28T13:46:05;5.30;61.60
58983;DHT22;44771;49.982;8.560;2023-02-28T13:51:38;5.20;63.60
58983;DHT22;44771;49.982;8.560;2023-02-28T13:56:46;4.90;62.10
58983;DHT22;44771;49.982;8.560;2023-02-28T14:02:03;5.10;62.90
58983;DHT22;44771;49.982;8.560;2023-02-28T14:07:18;5.10;64.50
58983;DHT22;44771;49.982;8.560;2023-02-28T14:13:00;4.90;64.10
58983;DHT22;44771;49.982;8.560;2023-02-28T14:18:03;4.80;63.60
58983;DHT22;44771;49.982;8.560;2023-02-28T14:23:13;4.80;64.40
58983;DHT22;44771;49.982;8.560;2023-02-28T14:28:25;4.90;64.40
58983;DHT22;44771;49.982;8.560;2023-02-28T14:33:40;4.80;65.10
58983;DHT22;44771;49.982;8.560;2023-02-28T14:38:45;4.90;63.60
58983;DHT22;44771;49.982;8.560;2023-02-28T14:43:52;4.90;63.70
58983;DHT22;44771;49.982;8.560;2023-02-28T14:48:54;4.80;64.80
58983;DHT22;44771;49.982;8.560;2023-02-28T14:53:58;4.60;64.10
58983;DHT22;44771;49.982;8.560;2023-02-28T14:59:02;4.50;66.20
58983;DHT22;44771;49.982;8.560;2023-02-28T15:04:06;4.40;64.30
58983;DHT22;44771;49.982;8.560;2023-02-28T15:09:17;4.50;65.30
58983;DHT22;44771;49.982;8.560;2023-02-28T15:14:21;4.40;66.60
58983;DHT22;44771;49.982;8.560;2023-02-28T15:19:25;4.50;65.70
58983;DHT22;44771;49.982;8.560;2023-02-28T15:24:35;4.40;65.90
58983;DHT22;44771;49.982;8.560;2023-02-28T15:29:46;4.30;65.50
58983;DHT22;44771;49.982;8.560;2023-02-28T15:34:48;4.40;66.60
58983;DHT22;44771;49.982;8.560;2023-02-28T15:39:50;4.30;67.60
58983;DHT22;44771;49.982;8.560;2023-02-28T15:44:53;4.20;67.70
58983;DHT22;44771;49.982;8.560;2023-02-28T15:49:57;4.10;67.40
58983;DHT22;44771;49.982;8.560;2023-02-28T15:54:59;4.10;68.00
58983;DHT22;44771;49.982;8.560;2023-02-28T16:00:14;4.00;69.20
58983;DHT22;44771;49.982;8.560;2023-02-28T16:05:24;4.00;69.40
58983;DHT22;44771;49.982;8.560;2023-02-28T16:10:28;4.00;68.40
58983;DHT22;44771;49.982;8.560;2023-02-28T16:15:35;3.90;68.40
58983;DHT22;44771;49.982;8.560;2023-02-28T16:20:39;3.90;69.50
58983;DHT22;44771;49.982;8.560;2023-02-28T16:25:43;3.80;69.80
58983;DHT22;44771;49.982;8.560;2023-02-28T16:30:47;3.80;70.80
58983;DHT22;44771;49.982;8.560;2023-02-28T16:35:49;3.60;70.70
58983;DHT22;44771;49.982;8.560;2023-02-28T16:40:51;3.50;71.30
58983;DHT22;44771;49.982;8.560;2023-02-28T16:45:56;3.30;71.90
58983;DHT22;44771;49.982;8.560;2023-02-28T16:51:01;3.20;72.20
58983;DHT22;44771;49.982;8.560;2023-02-28T16:56:03;3.00;73.70
58983;DHT22;44771;49.982;8.560;2023-02-28T17:01:06;2.80;75.00
58983;DHT22;44771;49.982;8.560;2023-02-28T17:06:17;2.70;75.40
58983;DHT22;44771;49.982;8.560;2023-02-28T17:11:19;2.60;76.10
58983;DHT22;44771;49.982;8.560;2023-02-28T17:16:26;2.60;76.00
58983;DHT22;44771;49.982;8.560;2023-02-28T17:21:30;2.40;76.80
58983;DHT22;44771;49.982;8.560;2023-02-28T17:26:32;2.30;78.10
58983;DHT22;44771;49.982;8.560;2023-02-28T17:31:35;2.20;78.80
58983;DHT22;44771;49.982;8.560;2023-02-28T17:36:39;2.10;79.00
58983;DHT22;44771;49.982;8.560;2023-02-28T17:41:44;1.90;79.90
58983;DHT22;44771;49.982;8.560;2023-02-28T17:46:47;1.90;80.90
58983;DHT22;44771;49.982;8.560;2023-02-28T17:51:49;1.80;81.60
58983;DHT22;44771;49.982;8.560;2023-02-28T17:56:51;1.70;82.40
58983;DHT22;44771;49.982;8.560;2023-02-28T18:01:54;1.60;82.70
58983;DHT22;44771;49.982;8.560;2023-02-28T18:06:56;1.50;83.70
58983;DHT22;44771;49.982;8.560;2023-02-28T18:11:57;1.40;85.00
58983;DHT22;44771;49.982;8.560;2023-02-28T18:17:01;1.20;85.80
58983;DHT22;44771;49.982;8.560;2023-02-28T18:22:02;1.20;86.80
58983;DHT22;44771;49.982;8.560;2023-02-28T18:27:04;1.20;87.50
58983;DHT22;44771;49.982;8.560;2023-02-28T18:32:07;1.00;89.40
58983;DHT22;44771;49.982;8.560;2023-02-28T18:37:09;0.80;90.60
58983;DHT22;44771;49.982;8.560;2023-02-28T18:42:10;0.80;90.80
58983;DHT22;44771;49.982;8.560;2023-02-28T18:47:14;0.70;91.70
58983;DHT22;44771;49.982;8.560;2023-02-28T18:52:15;0.50;92.90
58983;DHT22;44771;49.982;8.560;2023-02-28T18:57:17;0.40;93.40
58983;DHT22;44771;49.982;8.560;2023-02-28T19:02:20;0.50;93.40
58983;DHT22;44771;49.982;8.560;2023-02-28T19:07:22;0.50;93.20
58983;DHT22;44771;49.982;8.560;2023-02-28T19:12:24;0.50;93.50
58983;DHT22;44771;49.982;8.560;2023-02-28T19:17:27;0.50;93.80
58983;DHT22;44771;49.982;8.560;2023-02-28T19:22:29;0.60;93.60
58983;DHT22;44771;49.982;8.560;2023-02-28T19:27:33;0.60;93.80
58983;DHT22;44771;49.982;8.560;2023-02-28T19:32:36;0.40;94.60
58983;DHT22;44771;49.982;8.560;2023-02-28T19:37:39;0.40;95.10
58983;DHT22;44771;49.982;8.560;2023-02-28T19:42:41;0.60;94.80
58983;DHT22;44771;49.982;8.560;2023-02-28T19:47:44;0.50;95.70
58983;DHT22;44771;49.982;8.560;2023-02-28T19:52:46;0.60;95.50
58983;DHT22;44771;49.982;8.560;2023-02-28T19:57:47;0.50;96.30
58983;DHT22;44771;49.982;8.560;2023-02-28T20:02:51;0.50;96.90
58983;DHT22;44771;49.982;8.560;2023-02-28T20:07:52;0.60;97.20
58983;DHT22;44771;49.982;8.560;2023-02-28T20:12:54;0.50;97.30
58983;DHT22;44771;49.982;8.560;2023-02-28T20:17:57;0.50;97.60
58983;DHT22;44771;49.982;8.560;2023-02-28T20:22:59;0.60;97.50
58983;DHT22;44771;49.982;8.560;2023-02-28T20:28:01;0.60;97.60
58983;DHT22;44771;49.982;8.560;2023-02-28T20:33:04;0.50;98.30
58983;DHT22;44771;49.982;8.560;2023-02-28T20:38:06;0.50;98.60
58983;DHT22;44771;49.982;8.560;2023-02-28T20:43:07;0.40;99.10
58983;DHT22;44771;49.982;8.560;2023-02-28T20:48:10;0.10;99.90
58983;DHT22;44771;49.982;8.560;2023-02-28T20:53:12;0.00;99.90
58983;DHT22;44771;49.982;8.560;2023-02-28T20:58:14;0.00;99.90
58983;DHT22;44771;49.982;8.560;2023-02-28T21:03:17;0.00;99.90
58983;DHT22;44771;49.982;8.560;2023-02-28T21:08:19;-0.10;99.90
58983;DHT22;44771;49.982;8.560;2023-02-28T21:13:20;-0.20;99.90
58983;DHT22;44771;49.982;8.560;2023-02-28T21:18:26;-0.30;99.90
58983;DHT22;44771;49.982;8.560;2023-02-28T21:23:28;-0.40;99.90
58983;DHT22;44771;49.982;8.560;2023-02-28T21:28:31;-0.50;99.90
58983;DHT22;44771;49.982;8.560;2023-02-28T21:33:34;-0.50;99.90
58983;DHT22;44771;49.982;8.560;2023-02-28T21:38:37;-0.60;99.90
58983;DHT22;44771;49.982;8.560;2023-02-28T21:43:40;-0.70;99.90
58983;DHT22;44771;49.982;8.560;2023-02-28T21:48:43;-0.80;99.90
58983;DHT22;44771;49.982;8.560;2023-02-28T21:53:46;-0.90;99.90
58983;DHT22;44771;49.982;8.560;2023-02-28T21:58:48;-1.10;99.90
58983;DHT22;44771;49.982;8.560;2023-02-28T22:03:51;-1.10;99.90
58983;DHT22;44771;49.982;8.560;2023-02-28T22:08:55;-1.10;99.90
58983;DHT22;44771;49.982;8.560;2023-02-28T22:13:57;-1.30;99.90
58983;DHT22;44771;49.982;8.560;2023-02-28T22:19:00;-1.40;99.90
58983;DHT22;44771;49.982;8.560;2023-02-28T22:24:03;-1.50;99.90
58983;DHT22;44771;49.982;8.560;2023-02-28T22:29:05;-1.50;99.90
58983;DHT22;44771;49.982;8.560;2023-02-28T22:34:10;-1.60;99.90
58983;DHT22;44771;49.982;8.560;2023-02-28T22:39:12;-1.70;99.90
58983;DHT22;44771;49.982;8.560;2023-02-28T22:44:14;-1.70;99.90
58983;DHT22;44771;49.982;8.560;2023-02-28T22:49:17;-1.70;99.90
58983;DHT22;44771;49.982;8.560;2023-02-28T22:54:19;-1.70;99.90
58983;DHT22;44771;49.982;8.560;2023-02-28T22:59:21;-1.60;99.90
58983;DHT22;44771;49.982;8.560;2023-02-28T23:04:24;-1.80;99.90
58983;DHT22;44771;49.982;8.560;2023-02-28T23:09:25;-1.80;99.90
58983;DHT22;44771;49.982;8.560;2023-02-28T23:14:27;-1.80;99.90
58983;DHT22;44771;49.982;8.560;2023-02-28T23:19:30;-1.80;99.90
58983;DHT22;44771;49.982;8.560;2023-02-28T23:24:33;-1.70;99.90
58983;DHT22;44771;49.982;8.560;2023-02-28T23:29:36;-1.80;99.90
58983;DHT22;44771;49.982;8.560;2023-02-28T23:34:39;-1.60;99.90
58983;DHT22;44771;49.982;8.560;2023-02-28T23:39:40;-1.70;99.90
58983;DHT22;44771;49.982;8.560;2023-02-28T23:44:42;-1.70;99.90
58983;DHT22;44771;49.982;8.560;2023-02-28T23:49:45;-1.70;99.90
58983;DHT22;44771;49.982;8.560;2023-02-28T23:54:47;-1.60;99.90
58983;DHT22;44771;49.982;8.560;2023-02-28T23:59:48;-1.60;99.90
